sensor_id;sensor_type;location;lat;lon;timestamp;temperature;humidity
54461;DHT22;40371;49.414;11.010;2023-02-28T00:00:21;-1.10;99.90
54461;DHT22;40371;49.414;11.010;2023-02-28T00:02:47;-1.20;99.90
54461;DHT22;40371;49.414;11.010;2023-02-28T00:05:16;-1.20;99.90
54461;DHT22;40371;49.414;11.010;2023-02-28T00:07:42;-1.20;99.90
54461;DHT22;40371;49.414;11.010;2023-02-28T00:10:10;-1.20;99.90
54461;DHT22;40371;49.414;11.010;2023-02-28T00:12:39;-1.30;99.90
54461;DHT22;40371;49.414;11.010;2023-02-28T00:15:09;-1.30;99.90
54461;DHT22;40371;49.414;11.010;2023-02-28T00:17:36;-1.30;99.90
54461;DHT22;40371;49.414;11.010;2023-02-28T00:20:03;-1.30;99.90
54461;DHT22;40371;49.414;11.010;2023-02-28T00:22:36;-1.30;99.90
54461;DHT22;40371;49.414;11.010;2023-02-28T00:25:03;-1.30;99.90
54461;DHT22;40371;49.414;11.010;2023-02-28T00:27:29;-1.40;99.90
54461;DHT22;40371;49.414;11.010;2023-02-28T00:29:55;-1.40;99.90
54461;DHT22;40371;49.414;11.010;2023-02-28T00:32:20;-1.40;99.90
54461;DHT22;40371;49.414;11.010;2023-02-28T00:34:46;-1.40;99.90
54461;DHT22;40371;49.414;11.010;2023-02-28T00:37:12;-1.40;99.90
54461;DHT22;40371;49.414;11.010;2023-02-28T00:39:38;-1.50;99.90
54461;DHT22;40371;49.414;11.010;2023-02-28T00:42:05;-1.50;99.90
54461;DHT22;40371;49.414;11.010;2023-02-28T00:44:31;-1.40;99.90
54461;DHT22;40371;49.414;11.010;2023-02-28T00:46:58;-1.40;99.90
54461;DHT22;40371;49.414;11.010;2023-02-28T00:49:25;-1.40;99.90
54461;DHT22;40371;49.414;11.010;2023-02-28T00:51:51;-1.40;99.90
54461;DHT22;40371;49.414;11.010;2023-02-28T00:54:19;-1.40;99.90
54461;DHT22;40371;49.414;11.010;2023-02-28T00:56:46;-1.40;99.90
54461;DHT22;40371;49.414;11.010;2023-02-28T00:59:13;-1.40;99.90
54461;DHT22;40371;49.414;11.010;2023-02-28T01:01:39;-1.40;99.90
54461;DHT22;40371;49.414;11.010;2023-02-28T01:04:05;-1.30;99.90
54461;DHT22;40371;49.414;11.010;2023-02-28T01:06:31;-1.40;99.90
54461;DHT22;40371;49.414;11.010;2023-02-28T01:08:57;-1.40;99.90
54461;DHT22;40371;49.414;11.010;2023-02-28T01:11:24;-1.40;99.90
54461;DHT22;40371;49.414;11.010;2023-02-28T01:13:49;-1.40;99.90
54461;DHT22;40371;49.414;11.010;2023-02-28T01:16:15;-1.40;99.90
54461;DHT22;40371;49.414;11.010;2023-02-28T01:18:41;-1.40;99.90
54461;DHT22;40371;49.414;11.010;2023-02-28T01:21:08;-1.40;99.90
54461;DHT22;40371;49.414;11.010;2023-02-28T01:23:34;-1.40;99.90
54461;DHT22;40371;49.414;11.010;2023-02-28T01:26:11;-1.40;99.90
54461;DHT22;40371;49.414;11.010;2023-02-28T01:28:39;-1.40;99.90
54461;DHT22;40371;49.414;11.010;2023-02-28T01:31:05;-1.40;99.90
54461;DHT22;40371;49.414;11.010;2023-02-28T01:33:32;-1.40;99.90
54461;DHT22;40371;49.414;11.010;2023-02-28T01:38:32;-1.50;99.90
54461;DHT22;40371;49.414;11.010;2023-02-28T01:40:58;-1.40;99.90
54461;DHT22;40371;49.414;11.010;2023-02-28T01:43:31;-1.40;99.90
54461;DHT22;40371;49.414;11.010;2023-02-28T01:46:00;-1.40;99.90
54461;DHT22;40371;49.414;11.010;2023-02-28T01:48:32;-1.50;99.90
54461;DHT22;40371;49.414;11.010;2023-02-28T01:51:01;-1.40;99.90
54461;DHT22;40371;49.414;11.010;2023-02-28T01:53:35;-1.50;99.90
54461;DHT22;40371;49.414;11.010;2023-02-28T01:56:04;-1.50;99.90
54461;DHT22;40371;49.414;11.010;2023-02-28T01:58:31;-1.30;99.90
54461;DHT22;40371;49.414;11.010;2023-02-28T02:00:57;-1.40;99.90
54461;DHT22;40371;49.414;11.010;2023-02-28T02:03:23;-1.50;99.90
54461;DHT22;40371;49.414;11.010;2023-02-28T02:05:49;-1.40;99.90
54461;DHT22;40371;49.414;11.010;2023-02-28T02:08:22;-1.50;99.90
54461;DHT22;40371;49.414;11.010;2023-02-28T02:13:37;-1.50;99.90
54461;DHT22;40371;49.414;11.010;2023-02-28T02:21:50;-1.60;99.90
54461;DHT22;40371;49.414;11.010;2023-02-28T02:33:23;-1.60;99.90
54461;DHT22;40371;49.414;11.010;2023-02-28T02:43:49;-1.70;99.90
54461;DHT22;40371;49.414;11.010;2023-02-28T02:46:23;-1.70;99.90
54461;DHT22;40371;49.414;11.010;2023-02-28T02:48:51;-1.70;99.90
54461;DHT22;40371;49.414;11.010;2023-02-28T02:51:20;-1.70;99.90
54461;DHT22;40371;49.414;11.010;2023-02-28T02:54:02;-1.70;99.90
54461;DHT22;40371;49.414;11.010;2023-02-28T02:56:33;-1.70;99.90
54461;DHT22;40371;49.414;11.010;2023-02-28T02:59:09;-1.70;99.90
54461;DHT22;40371;49.414;11.010;2023-02-28T03:01:38;-1.70;99.90
54461;DHT22;40371;49.414;11.010;2023-02-28T03:04:12;-1.70;99.90
54461;DHT22;40371;49.414;11.010;2023-02-28T03:06:40;-1.70;99.90
54461;DHT22;40371;49.414;11.010;2023-02-28T03:09:05;-1.80;99.90
54461;DHT22;40371;49.414;11.010;2023-02-28T03:11:31;-1.70;99.90
54461;DHT22;40371;49.414;11.010;2023-02-28T03:14:12;-1.70;99.90
54461;DHT22;40371;49.414;11.010;2023-02-28T03:19:40;-1.90;99.90
54461;DHT22;40371;49.414;11.010;2023-02-28T03:22:35;-1.80;99.90
54461;DHT22;40371;49.414;11.010;2023-02-28T03:27:42;-1.80;99.90
54461;DHT22;40371;49.414;11.010;2023-02-28T03:30:38;-1.80;99.90
54461;DHT22;40371;49.414;11.010;2023-02-28T03:33:27;-1.80;99.90
54461;DHT22;40371;49.414;11.010;2023-02-28T03:35:59;-1.80;99.90
54461;DHT22;40371;49.414;11.010;2023-02-28T03:38:38;-1.90;99.90
54461;DHT22;40371;49.414;11.010;2023-02-28T03:41:19;-1.90;99.90
54461;DHT22;40371;49.414;11.010;2023-02-28T03:43:55;-1.80;99.90
54461;DHT22;40371;49.414;11.010;2023-02-28T03:46:23;-1.80;99.90
54461;DHT22;40371;49.414;11.010;2023-02-28T03:51:22;-1.90;99.90
54461;DHT22;40371;49.414;11.010;2023-02-28T03:53:52;-1.90;99.90
54461;DHT22;40371;49.414;11.010;2023-02-28T03:56:40;-1.90;99.90
54461;DHT22;40371;49.414;11.010;2023-02-28T03:59:34;-1.80;99.90
54461;DHT22;40371;49.414;11.010;2023-02-28T04:02:03;-1.90;99.90
54461;DHT22;40371;49.414;11.010;2023-02-28T04:04:28;-1.90;99.90
54461;DHT22;40371;49.414;11.010;2023-02-28T04:07:03;-1.80;99.90
54461;DHT22;40371;49.414;11.010;2023-02-28T04:09:28;-1.80;99.90
54461;DHT22;40371;49.414;11.010;2023-02-28T04:11:54;-1.80;99.90
54461;DHT22;40371;49.414;11.010;2023-02-28T04:14:21;-1.80;99.90
54461;DHT22;40371;49.414;11.010;2023-02-28T04:16:47;-1.80;99.90
54461;DHT22;40371;49.414;11.010;2023-02-28T04:19:13;-1.80;99.90
54461;DHT22;40371;49.414;11.010;2023-02-28T04:21:42;-1.70;99.90
54461;DHT22;40371;49.414;11.010;2023-02-28T04:24:10;-1.80;99.90
54461;DHT22;40371;49.414;11.010;2023-02-28T04:26:40;-1.80;99.90
54461;DHT22;40371;49.414;11.010;2023-02-28T04:29:06;-1.80;99.90
54461;DHT22;40371;49.414;11.010;2023-02-28T04:31:33;-1.70;99.90
54461;DHT22;40371;49.414;11.010;2023-02-28T04:33:59;-1.80;99.90
54461;DHT22;40371;49.414;11.010;2023-02-28T04:36:25;-1.70;99.90
54461;DHT22;40371;49.414;11.010;2023-02-28T04:38:51;-1.70;99.90
54461;DHT22;40371;49.414;11.010;2023-02-28T04:41:18;-1.70;99.90
54461;DHT22;40371;49.414;11.010;2023-02-28T04:43:44;-1.70;99.90
54461;DHT22;40371;49.414;11.010;2023-02-28T04:46:09;-1.70;99.90
54461;DHT22;40371;49.414;11.010;2023-02-28T04:48:37;-1.70;99.90
54461;DHT22;40371;49.414;11.010;2023-02-28T04:51:08;-1.70;99.90
54461;DHT22;40371;49.414;11.010;2023-02-28T04:53:35;-1.70;99.90
54461;DHT22;40371;49.414;11.010;2023-02-28T04:56:01;-1.70;99.90
54461;DHT22;40371;49.414;11.010;2023-02-28T04:58:27;-1.70;99.90
54461;DHT22;40371;49.414;11.010;2023-02-28T05:00:54;-1.70;99.90
54461;DHT22;40371;49.414;11.010;2023-02-28T05:03:20;-1.70;99.90
54461;DHT22;40371;49.414;11.010;2023-02-28T05:05:47;-1.70;99.90
54461;DHT22;40371;49.414;11.010;2023-02-28T05:08:13;-1.70;99.90
54461;DHT22;40371;49.414;11.010;2023-02-28T05:10:39;-1.60;99.90
54461;DHT22;40371;49.414;11.010;2023-02-28T05:13:05;-1.70;99.90
54461;DHT22;40371;49.414;11.010;2023-02-28T05:15:30;-1.70;99.90
54461;DHT22;40371;49.414;11.010;2023-02-28T05:17:56;-1.70;99.90
54461;DHT22;40371;49.414;11.010;2023-02-28T05:20:21;-1.60;99.90
54461;DHT22;40371;49.414;11.010;2023-02-28T05:22:47;-1.70;99.90
54461;DHT22;40371;49.414;11.010;2023-02-28T05:25:19;-1.70;99.90
54461;DHT22;40371;49.414;11.010;2023-02-28T05:27:45;-1.70;99.90
54461;DHT22;40371;49.414;11.010;2023-02-28T05:30:11;-1.70;99.90
54461;DHT22;40371;49.414;11.010;2023-02-28T05:32:40;-1.70;99.90
54461;DHT22;40371;49.414;11.010;2023-02-28T05:35:10;-1.70;99.90
54461;DHT22;40371;49.414;11.010;2023-02-28T05:37:37;-1.70;99.90
54461;DHT22;40371;49.414;11.010;2023-02-28T05:40:03;-1.70;99.90
54461;DHT22;40371;49.414;11.010;2023-02-28T05:42:33;-1.70;99.90
54461;DHT22;40371;49.414;11.010;2023-02-28T05:44:58;-1.70;99.90
54461;DHT22;40371;49.414;11.010;2023-02-28T05:47:24;-1.70;99.90
54461;DHT22;40371;49.414;11.010;2023-02-28T05:49:50;-1.70;99.90
54461;DHT22;40371;49.414;11.010;2023-02-28T05:52:15;-1.70;99.90
54461;DHT22;40371;49.414;11.010;2023-02-28T05:54:41;-1.70;99.90
54461;DHT22;40371;49.414;11.010;2023-02-28T05:57:07;-1.80;99.90
54461;DHT22;40371;49.414;11.010;2023-02-28T05:59:33;-1.80;99.90
54461;DHT22;40371;49.414;11.010;2023-02-28T06:01:59;-1.80;99.90
54461;DHT22;40371;49.414;11.010;2023-02-28T06:04:24;-1.80;99.90
54461;DHT22;40371;49.414;11.010;2023-02-28T06:06:50;-1.90;99.90
54461;DHT22;40371;49.414;11.010;2023-02-28T06:09:17;-1.80;99.90
54461;DHT22;40371;49.414;11.010;2023-02-28T06:11:43;-1.80;99.90
54461;DHT22;40371;49.414;11.010;2023-02-28T06:14:15;-1.80;99.90
54461;DHT22;40371;49.414;11.010;2023-02-28T06:16:42;-1.80;99.90
54461;DHT22;40371;49.414;11.010;2023-02-28T06:19:09;-1.80;99.90
54461;DHT22;40371;49.414;11.010;2023-02-28T06:21:35;-1.70;99.90
54461;DHT22;40371;49.414;11.010;2023-02-28T06:24:01;-1.60;99.90
54461;DHT22;40371;49.414;11.010;2023-02-28T06:26:27;-1.60;99.90
54461;DHT22;40371;49.414;11.010;2023-02-28T06:28:53;-1.60;99.90
54461;DHT22;40371;49.414;11.010;2023-02-28T06:31:20;-1.60;99.90
54461;DHT22;40371;49.414;11.010;2023-02-28T06:33:47;-1.50;99.90
54461;DHT22;40371;49.414;11.010;2023-02-28T06:36:14;-1.40;99.90
54461;DHT22;40371;49.414;11.010;2023-02-28T06:38:40;-1.40;99.90
54461;DHT22;40371;49.414;11.010;2023-02-28T06:41:07;-1.30;99.90
54461;DHT22;40371;49.414;11.010;2023-02-28T06:43:38;-1.20;99.90
54461;DHT22;40371;49.414;11.010;2023-02-28T06:46:07;-1.20;99.90
54461;DHT22;40371;49.414;11.010;2023-02-28T06:48:32;-1.10;99.90
54461;DHT22;40371;49.414;11.010;2023-02-28T06:51:09;-1.10;99.90
54461;DHT22;40371;49.414;11.010;2023-02-28T06:53:35;-1.00;99.90
54461;DHT22;40371;49.414;11.010;2023-02-28T06:56:09;-0.90;99.90
54461;DHT22;40371;49.414;11.010;2023-02-28T06:58:35;-0.70;99.90
54461;DHT22;40371;49.414;11.010;2023-02-28T07:01:01;-0.60;99.90
54461;DHT22;40371;49.414;11.010;2023-02-28T07:03:27;-0.60;99.90
54461;DHT22;40371;49.414;11.010;2023-02-28T07:05:53;-0.60;99.90
54461;DHT22;40371;49.414;11.010;2023-02-28T07:08:18;-0.60;99.90
54461;DHT22;40371;49.414;11.010;2023-02-28T07:10:44;-0.40;99.90
54461;DHT22;40371;49.414;11.010;2023-02-28T07:13:10;-0.40;99.90
54461;DHT22;40371;49.414;11.010;2023-02-28T07:15:36;-0.30;99.90
54461;DHT22;40371;49.414;11.010;2023-02-28T07:18:02;-0.10;99.90
54461;DHT22;40371;49.414;11.010;2023-02-28T07:20:28;-0.10;99.90
54461;DHT22;40371;49.414;11.010;2023-02-28T07:22:54;0.00;99.90
54461;DHT22;40371;49.414;11.010;2023-02-28T07:25:23;0.00;99.90
54461;DHT22;40371;49.414;11.010;2023-02-28T07:27:49;0.20;99.90
54461;DHT22;40371;49.414;11.010;2023-02-28T07:30:15;0.50;99.90
54461;DHT22;40371;49.414;11.010;2023-02-28T07:32:41;0.30;99.90
54461;DHT22;40371;49.414;11.010;2023-02-28T07:35:07;0.50;99.90
54461;DHT22;40371;49.414;11.010;2023-02-28T07:37:33;0.70;99.90
54461;DHT22;40371;49.414;11.010;2023-02-28T07:40:06;1.00;99.90
54461;DHT22;40371;49.414;11.010;2023-02-28T07:42:37;1.30;99.90
54461;DHT22;40371;49.414;11.010;2023-02-28T07:45:04;1.60;99.90
54461;DHT22;40371;49.414;11.010;2023-02-28T07:47:31;1.90;99.90
54461;DHT22;40371;49.414;11.010;2023-02-28T07:49:57;2.10;99.90
54461;DHT22;40371;49.414;11.010;2023-02-28T07:52:23;2.40;99.90
54461;DHT22;40371;49.414;11.010;2023-02-28T07:54:50;2.60;99.90
54461;DHT22;40371;49.414;11.010;2023-02-28T07:57:16;2.80;99.90
54461;DHT22;40371;49.414;11.010;2023-02-28T07:59:41;3.10;99.90
54461;DHT22;40371;49.414;11.010;2023-02-28T08:02:13;3.40;99.90
54461;DHT22;40371;49.414;11.010;2023-02-28T08:04:38;4.40;99.90
54461;DHT22;40371;49.414;11.010;2023-02-28T08:07:04;6.40;99.90
54461;DHT22;40371;49.414;11.010;2023-02-28T08:09:30;5.30;99.90
54461;DHT22;40371;49.414;11.010;2023-02-28T08:11:55;4.90;99.90
54461;DHT22;40371;49.414;11.010;2023-02-28T08:14:21;4.90;99.90
54461;DHT22;40371;49.414;11.010;2023-02-28T08:16:46;5.80;99.90
54461;DHT22;40371;49.414;11.010;2023-02-28T08:19:12;6.20;99.90
54461;DHT22;40371;49.414;11.010;2023-02-28T08:21:38;6.60;98.70
54461;DHT22;40371;49.414;11.010;2023-02-28T08:24:03;7.40;97.10
54461;DHT22;40371;49.414;11.010;2023-02-28T08:26:29;8.30;94.40
54461;DHT22;40371;49.414;11.010;2023-02-28T08:28:55;8.20;93.20
54461;DHT22;40371;49.414;11.010;2023-02-28T08:31:20;6.90;93.40
54461;DHT22;40371;49.414;11.010;2023-02-28T08:33:46;5.60;95.30
54461;DHT22;40371;49.414;11.010;2023-02-28T08:36:14;6.20;95.80
54461;DHT22;40371;49.414;11.010;2023-02-28T08:38:40;7.10;95.30
54461;DHT22;40371;49.414;11.010;2023-02-28T08:41:10;7.00;92.80
54461;DHT22;40371;49.414;11.010;2023-02-28T08:43:36;8.40;92.00
54461;DHT22;40371;49.414;11.010;2023-02-28T08:46:01;6.90;91.10
54461;DHT22;40371;49.414;11.010;2023-02-28T08:48:28;7.80;92.00
54461;DHT22;40371;49.414;11.010;2023-02-28T08:50:58;8.10;90.80
54461;DHT22;40371;49.414;11.010;2023-02-28T08:53:24;10.30;87.00
54461;DHT22;40371;49.414;11.010;2023-02-28T08:56:01;9.00;85.80
54461;DHT22;40371;49.414;11.010;2023-02-28T08:58:28;8.40;87.70
54461;DHT22;40371;49.414;11.010;2023-02-28T09:00:54;8.90;85.10
54461;DHT22;40371;49.414;11.010;2023-02-28T09:03:20;8.00;87.50
54461;DHT22;40371;49.414;11.010;2023-02-28T09:06:00;8.60;88.20
54461;DHT22;40371;49.414;11.010;2023-02-28T09:08:28;6.90;90.70
54461;DHT22;40371;49.414;11.010;2023-02-28T09:10:54;7.90;86.80
54461;DHT22;40371;49.414;11.010;2023-02-28T09:13:22;7.30;87.40
54461;DHT22;40371;49.414;11.010;2023-02-28T09:15:48;9.90;91.40
54461;DHT22;40371;49.414;11.010;2023-02-28T09:18:14;11.10;81.50
54461;DHT22;40371;49.414;11.010;2023-02-28T09:20:41;11.70;77.30
54461;DHT22;40371;49.414;11.010;2023-02-28T09:23:08;11.40;74.10
54461;DHT22;40371;49.414;11.010;2023-02-28T09:25:34;12.60;71.80
54461;DHT22;40371;49.414;11.010;2023-02-28T09:28:00;12.20;70.60
54461;DHT22;40371;49.414;11.010;2023-02-28T09:30:26;12.20;70.30
54461;DHT22;40371;49.414;11.010;2023-02-28T09:32:52;13.20;67.90
54461;DHT22;40371;49.414;11.010;2023-02-28T09:35:20;12.20;69.20
54461;DHT22;40371;49.414;11.010;2023-02-28T09:37:50;14.30;64.40
54461;DHT22;40371;49.414;11.010;2023-02-28T09:40:19;14.70;61.90
54461;DHT22;40371;49.414;11.010;2023-02-28T09:42:47;17.50;58.70
54461;DHT22;40371;49.414;11.010;2023-02-28T09:45:28;18.10;55.40
54461;DHT22;40371;49.414;11.010;2023-02-28T09:47:59;18.50;53.90
54461;DHT22;40371;49.414;11.010;2023-02-28T09:50:38;16.30;52.70
54461;DHT22;40371;49.414;11.010;2023-02-28T09:53:28;16.40;53.00
54461;DHT22;40371;49.414;11.010;2023-02-28T09:56:02;17.70;55.20
54461;DHT22;40371;49.414;11.010;2023-02-28T10:01:06;15.40;54.80
54461;DHT22;40371;49.414;11.010;2023-02-28T10:03:45;16.30;55.50
54461;DHT22;40371;49.414;11.010;2023-02-28T10:06:18;16.80;52.80
54461;DHT22;40371;49.414;11.010;2023-02-28T10:11:16;18.20;51.70
54461;DHT22;40371;49.414;11.010;2023-02-28T10:13:58;15.50;51.40
54461;DHT22;40371;49.414;11.010;2023-02-28T10:19:33;19.20;50.10
54461;DHT22;40371;49.414;11.010;2023-02-28T10:22:19;20.10;48.20
54461;DHT22;40371;49.414;11.010;2023-02-28T10:24:50;16.70;47.80
54461;DHT22;40371;49.414;11.010;2023-02-28T10:27:25;16.30;48.50
54461;DHT22;40371;49.414;11.010;2023-02-28T10:29:52;17.50;51.60
54461;DHT22;40371;49.414;11.010;2023-02-28T10:32:21;18.80;47.40
54461;DHT22;40371;49.414;11.010;2023-02-28T10:34:54;20.20;48.40
54461;DHT22;40371;49.414;11.010;2023-02-28T10:37:22;19.90;46.00
54461;DHT22;40371;49.414;11.010;2023-02-28T10:39:47;17.00;46.10
54461;DHT22;40371;49.414;11.010;2023-02-28T10:42:20;20.00;47.80
54461;DHT22;40371;49.414;11.010;2023-02-28T10:44:47;18.00;46.50
54461;DHT22;40371;49.414;11.010;2023-02-28T10:47:17;17.50;48.40
54461;DHT22;40371;49.414;11.010;2023-02-28T10:49:49;17.70;50.20
54461;DHT22;40371;49.414;11.010;2023-02-28T10:52:39;18.90;46.90
54461;DHT22;40371;49.414;11.010;2023-02-28T10:55:25;18.40;46.10
54461;DHT22;40371;49.414;11.010;2023-02-28T10:57:51;20.70;45.50
54461;DHT22;40371;49.414;11.010;2023-02-28T11:00:22;19.10;47.50
54461;DHT22;40371;49.414;11.010;2023-02-28T11:02:51;18.70;44.90
54461;DHT22;40371;49.414;11.010;2023-02-28T11:05:34;17.90;46.40
54461;DHT22;40371;49.414;11.010;2023-02-28T11:08:15;19.30;45.40
54461;DHT22;40371;49.414;11.010;2023-02-28T11:10:48;20.70;46.70
54461;DHT22;40371;49.414;11.010;2023-02-28T11:13:19;16.90;47.50
54461;DHT22;40371;49.414;11.010;2023-02-28T11:15:51;17.10;49.30
54461;DHT22;40371;49.414;11.010;2023-02-28T11:18:23;17.00;47.60
54461;DHT22;40371;49.414;11.010;2023-02-28T11:20:51;16.50;48.40
54461;DHT22;40371;49.414;11.010;2023-02-28T11:23:19;16.10;49.20
54461;DHT22;40371;49.414;11.010;2023-02-28T11:25:51;18.00;48.10
54461;DHT22;40371;49.414;11.010;2023-02-28T11:28:37;16.00;49.00
54461;DHT22;40371;49.414;11.010;2023-02-28T11:31:16;17.40;47.10
54461;DHT22;40371;49.414;11.010;2023-02-28T11:33:53;16.20;48.30
54461;DHT22;40371;49.414;11.010;2023-02-28T11:36:24;14.70;50.30
54461;DHT22;40371;49.414;11.010;2023-02-28T11:38:55;13.10;51.70
54461;DHT22;40371;49.414;11.010;2023-02-28T11:47:07;14.90;52.30
54461;DHT22;40371;49.414;11.010;2023-02-28T11:50:21;14.10;51.70
54461;DHT22;40371;49.414;11.010;2023-02-28T11:52:54;13.80;51.70
54461;DHT22;40371;49.414;11.010;2023-02-28T11:55:27;12.90;51.90
54461;DHT22;40371;49.414;11.010;2023-02-28T12:06:25;9.50;58.10
54461;DHT22;40371;49.414;11.010;2023-02-28T12:11:54;9.90;61.50
54461;DHT22;40371;49.414;11.010;2023-02-28T12:14:44;9.80;59.80
54461;DHT22;40371;49.414;11.010;2023-02-28T12:20:25;8.50;61.40
54461;DHT22;40371;49.414;11.010;2023-02-28T12:23:19;9.90;61.30
54461;DHT22;40371;49.414;11.010;2023-02-28T12:26:26;13.00;56.50
54461;DHT22;40371;49.414;11.010;2023-02-28T12:29:13;15.80;53.60
54461;DHT22;40371;49.414;11.010;2023-02-28T12:34:32;12.80;52.50
54461;DHT22;40371;49.414;11.010;2023-02-28T12:37:01;10.40;56.10
54461;DHT22;40371;49.414;11.010;2023-02-28T12:39:40;10.70;56.90
54461;DHT22;40371;49.414;11.010;2023-02-28T12:42:11;9.70;57.00
54461;DHT22;40371;49.414;11.010;2023-02-28T12:44:42;9.50;59.20
54461;DHT22;40371;49.414;11.010;2023-02-28T12:47:14;9.20;60.40
54461;DHT22;40371;49.414;11.010;2023-02-28T12:49:50;8.00;61.80
54461;DHT22;40371;49.414;11.010;2023-02-28T12:52:23;7.90;64.50
54461;DHT22;40371;49.414;11.010;2023-02-28T12:55:47;7.70;63.20
54461;DHT22;40371;49.414;11.010;2023-02-28T13:08:55;7.60;66.10
54461;DHT22;40371;49.414;11.010;2023-02-28T13:11:40;8.40;64.40
54461;DHT22;40371;49.414;11.010;2023-02-28T13:14:23;7.50;64.80
54461;DHT22;40371;49.414;11.010;2023-02-28T13:19:20;7.50;65.80
54461;DHT22;40371;49.414;11.010;2023-02-28T13:21:47;7.40;66.10
54461;DHT22;40371;49.414;11.010;2023-02-28T13:29:49;7.80;65.20
54461;DHT22;40371;49.414;11.010;2023-02-28T13:39:51;8.20;63.10
54461;DHT22;40371;49.414;11.010;2023-02-28T13:47:42;7.10;67.80
54461;DHT22;40371;49.414;11.010;2023-02-28T13:50:31;7.10;67.80
54461;DHT22;40371;49.414;11.010;2023-02-28T13:56:07;6.90;68.60
54461;DHT22;40371;49.414;11.010;2023-02-28T14:02:13;6.50;69.70
54461;DHT22;40371;49.414;11.010;2023-02-28T14:04:50;6.50;70.20
54461;DHT22;40371;49.414;11.010;2023-02-28T14:07:26;6.20;69.40
54461;DHT22;40371;49.414;11.010;2023-02-28T14:10:03;6.40;70.30
54461;DHT22;40371;49.414;11.010;2023-02-28T14:15:35;6.50;71.50
54461;DHT22;40371;49.414;11.010;2023-02-28T14:18:05;6.70;70.70
54461;DHT22;40371;49.414;11.010;2023-02-28T14:20:33;6.80;70.70
54461;DHT22;40371;49.414;11.010;2023-02-28T14:23:21;6.90;71.10
54461;DHT22;40371;49.414;11.010;2023-02-28T14:26:13;6.70;71.40
54461;DHT22;40371;49.414;11.010;2023-02-28T14:29:10;6.80;71.40
54461;DHT22;40371;49.414;11.010;2023-02-28T14:34:52;6.90;71.50
54461;DHT22;40371;49.414;11.010;2023-02-28T14:37:38;6.50;72.40
54461;DHT22;40371;49.414;11.010;2023-02-28T14:40:14;6.80;72.50
54461;DHT22;40371;49.414;11.010;2023-02-28T14:42:46;6.60;71.90
54461;DHT22;40371;49.414;11.010;2023-02-28T14:45:19;6.30;71.70
54461;DHT22;40371;49.414;11.010;2023-02-28T14:47:46;6.40;72.60
54461;DHT22;40371;49.414;11.010;2023-02-28T14:50:20;6.60;72.40
54461;DHT22;40371;49.414;11.010;2023-02-28T14:52:46;6.50;72.30
54461;DHT22;40371;49.414;11.010;2023-02-28T14:55:16;6.70;72.50
54461;DHT22;40371;49.414;11.010;2023-02-28T14:57:55;6.60;72.50
54461;DHT22;40371;49.414;11.010;2023-02-28T15:00:31;6.30;73.40
54461;DHT22;40371;49.414;11.010;2023-02-28T15:03:01;6.50;74.10
54461;DHT22;40371;49.414;11.010;2023-02-28T15:05:52;6.30;73.90
54461;DHT22;40371;49.414;11.010;2023-02-28T15:08:18;6.40;73.60
54461;DHT22;40371;49.414;11.010;2023-02-28T15:10:57;6.40;73.60
54461;DHT22;40371;49.414;11.010;2023-02-28T15:13:30;6.50;73.90
54461;DHT22;40371;49.414;11.010;2023-02-28T15:16:11;6.30;74.20
54461;DHT22;40371;49.414;11.010;2023-02-28T15:21:14;6.40;74.80
54461;DHT22;40371;49.414;11.010;2023-02-28T15:23:42;6.40;74.80
54461;DHT22;40371;49.414;11.010;2023-02-28T15:26:14;6.40;74.90
54461;DHT22;40371;49.414;11.010;2023-02-28T15:28:42;6.50;75.10
54461;DHT22;40371;49.414;11.010;2023-02-28T15:31:28;6.40;75.00
54461;DHT22;40371;49.414;11.010;2023-02-28T15:33:56;6.40;76.20
54461;DHT22;40371;49.414;11.010;2023-02-28T15:36:25;6.30;75.50
54461;DHT22;40371;49.414;11.010;2023-02-28T15:38:53;6.20;76.10
54461;DHT22;40371;49.414;11.010;2023-02-28T15:41:45;6.00;76.40
54461;DHT22;40371;49.414;11.010;2023-02-28T15:47:17;6.20;76.90
54461;DHT22;40371;49.414;11.010;2023-02-28T15:49:52;5.80;77.40
54461;DHT22;40371;49.414;11.010;2023-02-28T15:52:41;5.80;78.10
54461;DHT22;40371;49.414;11.010;2023-02-28T15:55:19;5.80;78.10
54461;DHT22;40371;49.414;11.010;2023-02-28T15:57:48;5.80;78.20
54461;DHT22;40371;49.414;11.010;2023-02-28T16:00:18;5.80;78.40
54461;DHT22;40371;49.414;11.010;2023-02-28T16:02:44;5.80;78.10
54461;DHT22;40371;49.414;11.010;2023-02-28T16:07:37;5.50;78.80
54461;DHT22;40371;49.414;11.010;2023-02-28T16:10:05;5.40;79.30
54461;DHT22;40371;49.414;11.010;2023-02-28T16:12:33;5.20;79.40
54461;DHT22;40371;49.414;11.010;2023-02-28T16:15:03;5.20;80.80
54461;DHT22;40371;49.414;11.010;2023-02-28T16:17:33;5.00;80.00
54461;DHT22;40371;49.414;11.010;2023-02-28T16:19:59;5.00;80.90
54461;DHT22;40371;49.414;11.010;2023-02-28T16:22:25;4.90;81.30
54461;DHT22;40371;49.414;11.010;2023-02-28T16:24:51;4.90;82.00
54461;DHT22;40371;49.414;11.010;2023-02-28T16:27:30;4.70;82.40
54461;DHT22;40371;49.414;11.010;2023-02-28T16:29:56;4.60;82.80
54461;DHT22;40371;49.414;11.010;2023-02-28T16:32:21;4.50;83.40
54461;DHT22;40371;49.414;11.010;2023-02-28T16:34:47;4.50;83.80
54461;DHT22;40371;49.414;11.010;2023-02-28T16:37:15;4.50;83.90
54461;DHT22;40371;49.414;11.010;2023-02-28T16:39:42;4.40;84.00
54461;DHT22;40371;49.414;11.010;2023-02-28T16:42:20;4.40;84.30
54461;DHT22;40371;49.414;11.010;2023-02-28T16:44:47;4.30;84.60
54461;DHT22;40371;49.414;11.010;2023-02-28T16:47:13;4.30;85.50
54461;DHT22;40371;49.414;11.010;2023-02-28T16:49:39;4.20;85.80
54461;DHT22;40371;49.414;11.010;2023-02-28T16:52:08;4.40;87.10
54461;DHT22;40371;49.414;11.010;2023-02-28T16:54:33;4.70;86.40
54461;DHT22;40371;49.414;11.010;2023-02-28T16:56:59;4.60;86.00
54461;DHT22;40371;49.414;11.010;2023-02-28T16:59:26;4.50;85.30
54461;DHT22;40371;49.414;11.010;2023-02-28T17:01:53;4.60;85.60
54461;DHT22;40371;49.414;11.010;2023-02-28T17:04:19;4.30;86.10
54461;DHT22;40371;49.414;11.010;2023-02-28T17:06:45;4.50;86.40
54461;DHT22;40371;49.414;11.010;2023-02-28T17:09:19;4.10;86.50
54461;DHT22;40371;49.414;11.010;2023-02-28T17:11:46;3.80;88.00
54461;DHT22;40371;49.414;11.010;2023-02-28T17:14:12;3.70;89.00
54461;DHT22;40371;49.414;11.010;2023-02-28T17:16:38;3.60;89.40
54461;DHT22;40371;49.414;11.010;2023-02-28T17:19:12;3.50;90.00
54461;DHT22;40371;49.414;11.010;2023-02-28T17:21:39;3.50;90.10
54461;DHT22;40371;49.414;11.010;2023-02-28T17:24:07;3.60;91.70
54461;DHT22;40371;49.414;11.010;2023-02-28T17:26:33;3.70;92.30
54461;DHT22;40371;49.414;11.010;2023-02-28T17:28:58;3.70;91.90
54461;DHT22;40371;49.414;11.010;2023-02-28T17:31:26;3.60;91.50
54461;DHT22;40371;49.414;11.010;2023-02-28T17:33:53;3.60;91.90
54461;DHT22;40371;49.414;11.010;2023-02-28T17:36:26;3.60;92.30
54461;DHT22;40371;49.414;11.010;2023-02-28T17:38:53;3.60;91.50
54461;DHT22;40371;49.414;11.010;2023-02-28T17:41:20;3.50;91.70